createdAt,value
2022-09-12T00:01:11.908Z,71.64
2022-09-12T00:03:42.006Z,72.04
2022-09-12T00:06:11.699Z,71.86
2022-09-12T00:08:39.492Z,72.13
2022-09-12T00:11:08.930Z,72.39
2022-09-12T00:13:41.343Z,72.38
2022-09-12T00:16:15.850Z,72.35
2022-09-12T00:18:46.833Z,72.57
2022-09-12T00:21:15.440Z,72.73
2022-09-12T00:23:43.062Z,72.83
2022-09-12T00:26:11.265Z,73.05
2022-09-12T00:28:40.424Z,73.00
2022-09-12T00:31:10.380Z,73.16
2022-09-12T00:33:38.573Z,73.03
2022-09-12T00:36:09.540Z,73.26
2022-09-12T00:38:38.776Z,73.20
2022-09-12T00:41:07.172Z,73.34
2022-09-12T00:43:37.162Z,73.33
2022-09-12T00:46:08.702Z,73.43
2022-09-12T00:48:41.627Z,73.85
2022-09-12T00:51:11.090Z,74.19
2022-09-12T00:53:39.323Z,74.32
2022-09-12T00:56:07.372Z,74.24
2022-09-12T00:58:38.276Z,74.22
2022-09-12T01:01:06.077Z,74.34
2022-09-12T01:03:33.771Z,74.50
2022-09-12T01:06:06.257Z,74.53
2022-09-12T01:08:37.333Z,74.73
2022-09-12T01:11:05.731Z,74.93
2022-09-12T01:13:33.718Z,75.31
2022-09-12T01:16:01.603Z,75.20
2022-09-12T01:18:33.719Z,75.54
2022-09-12T01:21:12.195Z,75.87
2022-09-12T01:24:03.684Z,75.48
2022-09-12T01:26:58.740Z,75.85
2022-09-12T01:29:40.900Z,76.22
2022-09-12T01:32:15.652Z,76.45
2022-09-12T01:34:48.120Z,76.88
2022-09-12T01:37:19.019Z,76.93
2022-09-12T01:39:52.403Z,77.21
2022-09-12T01:42:23.815Z,77.28
2022-09-12T01:44:56.310Z,77.17
2022-09-12T01:47:32.097Z,77.21
2022-09-12T01:50:01.936Z,77.50
2022-09-12T01:52:32.834Z,77.53
2022-09-12T01:55:05.444Z,77.38
2022-09-12T01:57:39.098Z,77.49
2022-09-12T02:00:11.212Z,77.59
2022-09-12T02:02:40.823Z,77.87
2022-09-12T02:05:11.957Z,77.89
2022-09-12T02:07:43.382Z,77.96
2022-09-12T02:10:13.350Z,77.86
2022-09-12T02:12:45.355Z,77.96
2022-09-12T02:15:14.288Z,77.99
2022-09-12T02:17:45.620Z,77.94
2022-09-12T02:20:44.021Z,78.13
2022-09-12T02:23:10.803Z,78.38
2022-09-12T02:25:39.533Z,78.33
2022-09-12T02:28:10.342Z,78.16
2022-09-12T02:30:41.430Z,78.13
2022-09-12T02:33:16.420Z,78.40
2022-09-12T02:35:47.794Z,78.51
2022-09-12T02:38:21.524Z,78.40
2022-09-12T02:40:49.190Z,78.25
2022-09-12T02:43:16.841Z,78.70
2022-09-12T02:45:44.602Z,78.60
2022-09-12T02:48:16.389Z,78.63
2022-09-12T02:50:44.637Z,78.65
2022-09-12T02:53:13.521Z,78.82
2022-09-12T02:55:42.482Z,79.13
2022-09-12T02:58:13.695Z,79.29
2022-09-12T03:00:46.543Z,79.25
2022-09-12T03:03:27.393Z,79.21
2022-09-12T03:05:58.307Z,79.15
2022-09-12T03:08:39.837Z,79.43
2022-09-12T03:11:19.938Z,79.44
2022-09-12T03:13:54.450Z,79.42
2022-09-12T03:16:28.881Z,79.54
2022-09-12T03:19:03.500Z,79.35
2022-09-12T03:21:35.163Z,79.60
2022-09-12T03:24:12.696Z,79.56
2022-09-12T03:26:44.103Z,79.81
2022-09-12T03:29:13.034Z,79.67
2022-09-12T03:31:50.322Z,79.63
2022-09-12T03:34:19.937Z,79.70
2022-09-12T03:36:47.731Z,79.51
2022-09-12T03:39:15.391Z,79.21
2022-09-12T03:41:43.038Z,79.32
2022-09-12T03:44:10.934Z,79.43
2022-09-12T03:46:38.559Z,79.71
2022-09-12T03:49:06.278Z,79.76
2022-09-12T03:51:35.320Z,79.74
2022-09-12T03:54:02.970Z,79.61
2022-09-12T03:56:30.872Z,79.58
2022-09-12T03:58:58.579Z,79.67
2022-09-12T04:01:26.241Z,79.44
2022-09-12T04:03:53.960Z,79.56
2022-09-12T04:06:23.249Z,79.62
2022-09-12T04:08:53.788Z,79.64
2022-09-12T04:11:22.518Z,79.79
2022-09-12T04:13:50.645Z,79.79
2022-09-12T04:16:19.141Z,79.90
2022-09-12T04:18:47.557Z,79.47
2022-09-12T04:21:17.699Z,79.35
2022-09-12T04:23:45.365Z,79.21
2022-09-12T04:26:14.798Z,79.44
2022-09-12T04:28:43.253Z,79.78
2022-09-12T04:31:13.934Z,79.55
2022-09-12T04:33:41.813Z,79.67
2022-09-12T04:36:11.378Z,79.55
2022-09-12T04:38:39.066Z,79.67
2022-09-12T04:41:14.660Z,79.58
2022-09-12T04:43:43.166Z,79.65
2022-09-12T04:46:12.816Z,79.56
2022-09-12T04:48:40.619Z,79.78
2022-09-12T04:51:11.656Z,79.72
2022-09-12T04:53:39.677Z,79.51
2022-09-12T04:56:08.900Z,79.49
2022-09-12T04:58:38.345Z,79.53
2022-09-12T05:01:07.568Z,79.46
2022-09-12T05:03:38.897Z,79.34
2022-09-12T05:06:08.999Z,79.85
2022-09-12T05:08:36.881Z,79.90
2022-09-12T05:11:05.954Z,79.45
2022-09-12T05:13:33.877Z,79.51
2022-09-12T05:16:04.623Z,79.50
2022-09-12T05:18:33.033Z,79.56
2022-09-12T05:21:01.233Z,79.42
2022-09-12T05:23:29.076Z,79.46
2022-09-12T05:25:57.916Z,79.25
2022-09-12T05:28:29.356Z,79.14
2022-09-12T05:31:03.266Z,79.40
2022-09-12T05:33:31.240Z,78.86
2022-09-12T05:36:00.819Z,78.85
2022-09-12T05:38:32.257Z,78.86
2022-09-12T05:41:07.763Z,78.71
2022-09-12T05:43:35.816Z,78.47
2022-09-12T05:46:08.757Z,78.77
2022-09-12T05:48:36.639Z,78.64
2022-09-12T05:51:06.774Z,78.06
2022-09-12T05:53:34.391Z,78.12
2022-09-12T05:56:06.762Z,78.16
2022-09-12T05:58:35.455Z,78.24
2022-09-12T06:01:07.624Z,78.42
2022-09-12T06:03:35.412Z,78.59
2022-09-12T06:06:05.004Z,78.27
2022-09-12T06:08:33.565Z,78.10
2022-09-12T06:11:02.536Z,77.94
2022-09-12T06:13:30.258Z,78.01
2022-09-12T06:16:06.432Z,78.14
2022-09-12T06:18:34.710Z,78.17
2022-09-12T06:21:06.132Z,78.24
2022-09-12T06:23:34.303Z,78.30
2022-09-12T06:26:02.431Z,77.98
2022-09-12T06:28:32.686Z,77.70
2022-09-12T06:31:05.837Z,77.57
2022-09-12T06:33:35.405Z,77.36
2022-09-12T06:36:10.163Z,77.46
2022-09-12T06:38:40.658Z,77.39
2022-09-12T06:41:10.853Z,76.63
2022-09-12T06:43:38.817Z,76.01
2022-09-12T06:46:11.688Z,75.52
2022-09-12T06:48:41.909Z,75.48
2022-09-12T06:51:13.353Z,75.25
2022-09-12T06:53:42.221Z,75.08
2022-09-12T06:56:12.504Z,74.87
2022-09-12T06:58:41.068Z,75.59
2022-09-12T07:01:12.157Z,75.77
2022-09-12T07:03:40.641Z,75.73
2022-09-12T07:06:10.675Z,75.03
2022-09-12T07:08:38.909Z,75.39
2022-09-12T07:11:12.523Z,75.57
2022-09-12T07:13:40.476Z,75.45
2022-09-12T07:16:08.387Z,75.04
2022-09-12T07:18:39.120Z,75.52
2022-09-12T07:21:08.965Z,75.54
2022-09-12T07:23:36.887Z,75.70
2022-09-12T07:26:05.274Z,74.99
2022-09-12T07:28:34.727Z,74.55
2022-09-12T07:31:07.275Z,74.76
2022-09-12T07:33:35.469Z,74.37
2022-09-12T07:36:06.896Z,74.50
2022-09-12T07:38:35.173Z,74.70
2022-09-12T07:41:03.786Z,74.07
2022-09-12T07:43:31.766Z,74.04
2022-09-12T07:46:00.121Z,73.87
2022-09-12T07:48:28.616Z,73.03
2022-09-12T07:51:00.793Z,72.74
2022-09-12T07:53:33.330Z,72.56
2022-09-12T07:56:01.135Z,72.37
2022-09-12T07:58:28.981Z,72.88
2022-09-12T08:01:03.402Z,74.00
2022-09-12T08:03:31.351Z,74.17
2022-09-12T08:06:08.647Z,74.73
2022-09-12T08:08:38.619Z,75.16
2022-09-12T08:11:08.129Z,73.79
2022-09-12T08:13:37.057Z,74.15
2022-09-12T08:16:07.009Z,74.13
2022-09-12T08:18:36.825Z,73.48
2022-09-12T08:21:06.780Z,73.62
2022-09-12T08:23:35.163Z,73.60
2022-09-12T08:26:08.273Z,73.30
2022-09-12T08:28:37.567Z,73.10
2022-09-12T08:31:06.517Z,72.23
2022-09-12T08:33:34.590Z,72.52
2022-09-12T08:36:07.507Z,72.20
2022-09-12T08:38:35.960Z,71.84
2022-09-12T08:41:11.961Z,71.47
2022-09-12T08:44:00.669Z,71.91
2022-09-12T08:46:33.105Z,72.35
2022-09-12T08:49:02.386Z,72.83
2022-09-12T08:51:31.262Z,72.62
2022-09-12T08:53:59.972Z,70.91
2022-09-12T08:56:31.845Z,70.89
2022-09-12T08:59:00.333Z,71.00
2022-09-12T09:01:32.879Z,70.66
2022-09-12T09:04:39.103Z,70.53
2022-09-12T09:07:20.913Z,69.61
2022-09-12T09:10:06.782Z,69.75
2022-09-12T09:12:41.755Z,70.17
2022-09-12T09:15:25.037Z,69.91
2022-09-12T09:17:54.962Z,69.55
2022-09-12T09:20:30.262Z,69.29
2022-09-12T09:23:02.223Z,69.34
2022-09-12T09:25:40.150Z,69.62
2022-09-12T09:28:15.294Z,69.77
2022-09-12T09:30:44.907Z,69.02
2022-09-12T09:33:23.653Z,68.74
2022-09-12T09:36:02.422Z,69.69
2022-09-12T09:38:40.479Z,70.17
2022-09-12T09:41:24.416Z,70.52
2022-09-12T09:43:58.479Z,70.47
2022-09-12T09:46:26.786Z,71.12
2022-09-12T09:48:55.554Z,71.40
2022-09-12T09:51:27.150Z,71.63
2022-09-12T09:53:56.493Z,72.09
2022-09-12T09:56:30.291Z,72.85
2022-09-12T09:59:10.418Z,73.08
2022-09-12T10:01:38.870Z,73.99
2022-09-12T10:04:07.493Z,74.45
2022-09-12T10:06:38.015Z,74.92
2022-09-12T10:09:11.493Z,77.27
2022-09-12T10:11:45.668Z,77.66
2022-09-12T10:14:36.937Z,76.84
2022-09-12T10:17:23.553Z,76.92
2022-09-12T10:20:04.836Z,77.07
2022-09-12T10:22:39.761Z,77.10
2022-09-12T10:25:14.280Z,78.01
2022-09-12T10:27:42.900Z,77.83
2022-09-12T10:30:20.437Z,78.11
2022-09-12T10:32:51.855Z,79.01
2022-09-12T10:35:22.487Z,79.03
2022-09-12T10:37:55.644Z,79.09
2022-09-12T10:40:25.476Z,78.68
2022-09-12T10:42:55.109Z,78.63
2022-09-12T10:45:27.348Z,79.06
2022-09-12T10:47:57.447Z,79.16
2022-09-12T10:50:31.133Z,79.19
2022-09-12T10:53:16.266Z,78.72
2022-09-12T10:55:57.080Z,78.94
2022-09-12T10:58:42.600Z,77.79
2022-09-12T11:01:20.147Z,76.42
2022-09-12T11:04:04.832Z,76.59
2022-09-12T11:06:39.486Z,76.22
2022-09-12T11:09:11.502Z,76.49
2022-09-12T11:11:47.597Z,76.73
2022-09-12T11:14:27.247Z,76.77
2022-09-12T11:17:02.804Z,77.38
2022-09-12T11:19:59.887Z,77.84
2022-09-12T11:22:36.781Z,78.15
2022-09-12T11:25:15.703Z,78.16
2022-09-12T11:28:08.039Z,78.50
2022-09-12T11:30:41.455Z,78.53
2022-09-12T11:33:25.583Z,78.65
2022-09-12T11:35:55.807Z,79.00
2022-09-12T11:38:42.412Z,77.79
2022-09-12T11:41:15.602Z,77.84
2022-09-12T11:43:45.994Z,77.24
2022-09-12T11:46:19.363Z,77.56
2022-09-12T11:48:55.719Z,77.03
2022-09-12T11:51:27.762Z,77.63
2022-09-12T11:54:07.200Z,77.05
2022-09-12T11:56:36.426Z,76.71
2022-09-12T11:59:07.171Z,75.97
2022-09-12T12:01:43.852Z,75.95
2022-09-12T12:04:16.616Z,75.59
2022-09-12T12:06:55.215Z,75.53
2022-09-12T12:09:23.855Z,75.50
2022-09-12T12:11:54.618Z,75.21
2022-09-12T12:14:25.108Z,74.78
2022-09-12T12:16:52.982Z,74.33
2022-09-12T12:19:34.339Z,74.14
2022-09-12T12:22:08.918Z,73.96
2022-09-12T12:24:38.165Z,73.95
2022-09-12T12:27:06.967Z,72.85
2022-09-12T12:29:43.657Z,72.67
2022-09-12T12:32:27.064Z,71.89
2022-09-12T12:35:38.762Z,71.06
2022-09-12T12:38:28.230Z,70.61
2022-09-12T12:41:34.782Z,70.21
2022-09-12T12:44:43.626Z,68.50
2022-09-12T12:47:18.345Z,68.51
2022-09-12T12:49:53.640Z,68.58
2022-09-12T12:52:23.547Z,68.52
2022-09-12T12:54:57.287Z,68.93
2022-09-12T12:57:36.384Z,68.55
2022-09-12T13:00:11.347Z,68.09
2022-09-12T13:02:42.073Z,67.55
2022-09-12T13:05:20.004Z,67.83
2022-09-12T13:07:55.480Z,67.39
2022-09-12T13:10:31.231Z,67.60
2022-09-12T13:13:01.513Z,66.79
2022-09-12T13:15:52.057Z,66.85
2022-09-12T13:18:25.590Z,66.40
2022-09-12T13:20:57.324Z,66.89
2022-09-12T13:23:28.814Z,66.14
2022-09-12T13:26:00.079Z,66.11
2022-09-12T13:28:29.349Z,65.49
2022-09-12T13:31:02.335Z,66.28
2022-09-12T13:33:36.948Z,65.85
2022-09-12T13:36:35.501Z,65.31
2022-09-12T13:39:24.329Z,66.00
2022-09-12T13:42:26.197Z,66.17
2022-09-12T13:47:32.531Z,66.33
2022-09-12T13:50:00.565Z,65.01
2022-09-12T13:52:31.190Z,65.50
2022-09-12T13:55:01.010Z,64.90
2022-09-12T13:57:31.632Z,65.02
2022-09-12T14:00:00.824Z,64.93
2022-09-12T14:02:31.267Z,64.08
2022-09-12T14:05:18.620Z,63.68
2022-09-12T14:07:56.423Z,62.63
2022-09-12T14:10:35.603Z,63.24
2022-09-12T14:13:05.537Z,60.82
2022-09-12T14:15:34.936Z,61.66
2022-09-12T14:18:04.879Z,61.11
2022-09-12T14:20:34.318Z,61.47
2022-09-12T14:23:04.211Z,61.27
2022-09-12T14:25:39.185Z,60.26
2022-09-12T14:28:07.269Z,59.79
2022-09-12T14:30:37.590Z,59.30
2022-09-12T14:33:07.838Z,59.97
2022-09-12T14:35:41.363Z,59.46
2022-09-12T14:38:18.518Z,58.75
2022-09-12T14:40:49.798Z,59.74
2022-09-12T14:43:23.172Z,58.85
2022-09-12T14:45:55.740Z,59.00
2022-09-12T14:48:24.023Z,58.42
2022-09-12T14:50:52.471Z,59.31
2022-09-12T14:53:27.851Z,60.00
2022-09-12T14:56:00.928Z,59.79
2022-09-12T14:58:29.849Z,59.65
2022-09-12T15:01:00.632Z,60.09
2022-09-12T15:03:33.869Z,60.45
2022-09-12T15:06:02.884Z,60.80
2022-09-12T15:08:31.838Z,61.51
2022-09-12T15:11:02.100Z,61.92
2022-09-12T15:13:32.080Z,61.80
2022-09-12T15:16:00.725Z,61.79
2022-09-12T15:18:29.639Z,61.73
2022-09-12T15:20:58.906Z,61.76
2022-09-12T15:23:35.673Z,61.35
2022-09-12T15:26:05.618Z,61.61
2022-09-12T15:28:33.901Z,60.67
2022-09-12T15:31:07.771Z,60.17
2022-09-12T15:33:35.562Z,59.86
2022-09-12T15:36:03.926Z,59.75
2022-09-12T15:38:31.915Z,60.07
2022-09-12T15:40:59.546Z,59.79
2022-09-12T15:43:28.618Z,59.80
2022-09-12T15:45:56.385Z,58.04
2022-09-12T15:48:24.674Z,57.36
2022-09-12T15:50:52.978Z,56.34
2022-09-12T15:53:21.213Z,56.52
2022-09-12T15:55:49.321Z,56.24
2022-09-12T15:58:17.015Z,55.35
2022-09-12T16:00:46.378Z,55.33
2022-09-12T16:03:22.136Z,55.35
2022-09-12T16:05:49.969Z,57.10
2022-09-12T16:08:17.699Z,60.24
2022-09-12T16:10:54.333Z,61.53
2022-09-12T16:13:22.159Z,61.65
2022-09-12T16:15:51.492Z,62.33
2022-09-12T16:18:19.449Z,63.10
2022-09-12T16:20:47.559Z,63.94
2022-09-12T16:23:15.308Z,63.92
2022-09-12T16:25:43.289Z,63.94
2022-09-12T16:28:10.990Z,64.33
2022-09-12T16:30:38.683Z,64.88
2022-09-12T16:33:08.571Z,65.11
2022-09-12T16:35:36.180Z,65.37
2022-09-12T16:38:04.181Z,65.87
2022-09-12T16:40:31.859Z,66.25
2022-09-12T16:42:59.516Z,66.35
2022-09-12T16:45:27.234Z,66.40
2022-09-12T16:47:55.719Z,66.00
2022-09-12T16:50:24.870Z,66.25
2022-09-12T16:52:52.537Z,66.60
2022-09-12T16:55:21.415Z,66.65
2022-09-12T16:57:49.747Z,66.46
2022-09-12T17:00:17.776Z,66.70
2022-09-12T17:02:45.786Z,66.52
2022-09-12T17:05:15.874Z,66.93
2022-09-12T17:07:45.073Z,66.77
2022-09-12T17:10:15.468Z,66.92
2022-09-12T17:12:43.363Z,67.85
2022-09-12T17:15:11.814Z,68.39
2022-09-12T17:17:39.875Z,69.07
2022-09-12T17:20:08.226Z,69.06
2022-09-12T17:22:36.304Z,69.30
2022-09-12T17:25:06.785Z,69.43
2022-09-12T17:27:34.784Z,69.60
2022-09-12T17:30:02.903Z,69.70
2022-09-12T17:32:31.509Z,69.65
2022-09-12T17:35:00.096Z,69.30
2022-09-12T17:37:28.481Z,69.60
2022-09-12T17:39:58.926Z,69.46
2022-09-12T17:42:28.947Z,70.46
2022-09-12T17:45:01.904Z,70.81
2022-09-12T17:47:30.275Z,70.87
2022-09-12T17:50:14.492Z,71.70
2022-09-12T17:52:47.464Z,71.48
2022-09-12T17:55:16.356Z,71.55
2022-09-12T17:57:45.950Z,71.61
2022-09-12T18:00:14.702Z,71.90
2022-09-12T18:02:43.411Z,72.98
2022-09-12T18:05:11.506Z,72.87
2022-09-12T18:07:43.958Z,73.62
2022-09-12T18:10:14.959Z,73.30
2022-09-12T18:12:43.193Z,74.09
2022-09-12T18:15:13.176Z,74.17
2022-09-12T18:17:41.877Z,74.36
2022-09-12T18:20:10.580Z,74.24
2022-09-12T18:22:38.685Z,74.58
2022-09-12T18:25:08.827Z,75.42
2022-09-12T18:27:36.832Z,76.06
2022-09-12T18:30:20.538Z,76.04
2022-09-12T18:32:51.688Z,76.80
2022-09-12T18:35:24.423Z,76.69
2022-09-12T18:37:53.227Z,76.75
2022-09-12T18:40:22.478Z,77.11
2022-09-12T18:42:51.512Z,76.56
2022-09-12T18:45:21.428Z,76.20
2022-09-12T18:47:51.294Z,76.10
2022-09-12T18:50:19.943Z,76.00
2022-09-12T18:52:50.076Z,76.01
2022-09-12T18:55:18.426Z,77.13
2022-09-12T18:57:46.553Z,77.40
2022-09-12T19:00:17.098Z,77.94
2022-09-12T19:02:45.146Z,78.24
2022-09-12T19:05:14.587Z,78.67
2022-09-12T19:07:46.169Z,78.10
2022-09-12T19:10:14.464Z,77.94
2022-09-12T19:12:42.516Z,78.36
2022-09-12T19:15:12.414Z,78.27
2022-09-12T19:17:40.459Z,78.40
2022-09-12T19:20:09.387Z,78.18
2022-09-12T19:22:39.051Z,77.93
2022-09-12T19:25:11.190Z,78.31
2022-09-12T19:27:41.517Z,78.10
2022-09-12T19:30:10.683Z,78.47
2022-09-12T19:32:38.622Z,77.99
2022-09-12T19:35:14.013Z,77.66
2022-09-12T19:37:43.559Z,77.36
2022-09-12T19:40:11.866Z,77.38
2022-09-12T19:42:40.468Z,77.62
2022-09-12T19:45:08.963Z,77.59
2022-09-12T19:47:37.390Z,77.24
2022-09-12T19:50:11.172Z,77.06
2022-09-12T19:52:39.125Z,77.02
2022-09-12T19:55:13.410Z,77.35
2022-09-12T19:57:41.302Z,77.31
2022-09-12T20:00:10.481Z,77.27
2022-09-12T20:02:38.219Z,77.04
2022-09-12T20:05:14.165Z,77.25
2022-09-12T20:07:50.792Z,77.42
2022-09-12T20:10:21.338Z,77.90
2022-09-12T20:12:49.161Z,78.53
2022-09-12T20:15:17.392Z,78.57
2022-09-12T20:17:45.573Z,78.37
2022-09-12T20:20:13.242Z,78.59
2022-09-12T20:22:40.927Z,78.82
2022-09-12T20:25:11.135Z,79.06
2022-09-12T20:27:40.214Z,79.44
2022-09-12T20:30:09.490Z,78.84
2022-09-12T20:32:37.258Z,78.68
2022-09-12T20:35:05.618Z,78.76
2022-09-12T20:37:33.411Z,78.82
2022-09-12T20:40:01.264Z,78.82
2022-09-12T20:42:29.753Z,78.51
2022-09-12T20:44:59.161Z,78.24
2022-09-12T20:47:26.784Z,78.06
2022-09-12T20:49:54.412Z,78.67
2022-09-12T20:52:22.039Z,78.70
2022-09-12T20:54:49.666Z,79.13
2022-09-12T20:57:17.334Z,80.03
2022-09-12T20:59:45.018Z,80.46
2022-09-12T21:02:16.355Z,80.21
2022-09-12T21:04:44.193Z,79.95
2022-09-12T21:07:11.951Z,80.00
2022-09-12T21:09:39.624Z,79.79
2022-09-12T21:12:07.708Z,79.74
2022-09-12T21:14:35.383Z,80.09
2022-09-12T21:17:03.027Z,79.86
2022-09-12T21:19:32.278Z,79.74
2022-09-12T21:22:00.070Z,80.14
2022-09-12T21:24:27.724Z,80.22
2022-09-12T21:26:55.580Z,80.17
2022-09-12T21:29:23.192Z,80.00
2022-09-12T21:31:51.435Z,80.18
2022-09-12T21:34:19.203Z,79.66
2022-09-12T21:36:48.274Z,79.44
2022-09-12T21:39:16.022Z,79.55
2022-09-12T21:41:43.814Z,79.58
2022-09-12T21:44:11.440Z,79.51
2022-09-12T21:46:39.461Z,79.34
2022-09-12T21:49:07.514Z,79.50
2022-09-12T21:51:35.321Z,79.41
2022-09-12T21:54:04.619Z,79.44
2022-09-12T21:56:32.503Z,79.25
2022-09-12T21:59:00.515Z,79.11
2022-09-12T22:01:28.848Z,79.31
2022-09-12T22:03:57.008Z,78.93
2022-09-12T22:06:24.936Z,78.86
2022-09-12T22:08:52.665Z,78.91
2022-09-12T22:11:22.480Z,78.96
2022-09-12T22:13:50.558Z,78.87
2022-09-12T22:16:18.604Z,79.63
2022-09-12T22:18:47.829Z,79.94
2022-09-12T22:21:17.064Z,79.53
2022-09-12T22:24:02.283Z,79.97
2022-09-12T22:26:34.963Z,79.73
2022-09-12T22:29:03.305Z,79.63
2022-09-12T22:31:31.046Z,80.21
2022-09-12T22:33:59.426Z,80.04
2022-09-12T22:36:31.160Z,80.07
2022-09-12T22:38:59.430Z,79.74
2022-09-12T22:41:27.633Z,79.69
2022-09-12T22:44:01.986Z,80.07
2022-09-12T22:46:30.204Z,79.86
2022-09-12T22:48:59.914Z,79.52
2022-09-12T22:51:27.670Z,79.56
2022-09-12T22:53:56.446Z,79.63
2022-09-12T22:56:25.081Z,79.55
2022-09-12T22:58:53.104Z,79.76
2022-09-12T23:01:23.977Z,79.54
2022-09-12T23:03:51.985Z,79.16
2022-09-12T23:06:19.897Z,78.93
2022-09-12T23:08:47.572Z,78.87
2022-09-12T23:11:16.765Z,78.87
2022-09-12T23:13:45.978Z,79.39
2022-09-12T23:16:16.926Z,79.30
2022-09-12T23:18:46.447Z,79.18
2022-09-12T23:21:15.740Z,79.44
2022-09-12T23:23:43.616Z,79.37
2022-09-12T23:26:13.286Z,79.35
2022-09-12T23:28:42.358Z,79.41
2022-09-12T23:31:10.722Z,79.43
2022-09-12T23:33:38.433Z,79.16
2022-09-12T23:36:11.422Z,78.95
2022-09-12T23:38:39.292Z,78.94
2022-09-12T23:41:08.094Z,78.46
2022-09-12T23:43:35.988Z,78.04
2022-09-12T23:46:04.777Z,77.78
2022-09-12T23:48:33.107Z,78.21
2022-09-12T23:51:01.489Z,78.16
2022-09-12T23:53:31.052Z,78.52
2022-09-12T23:55:59.297Z,78.74
2022-09-12T23:58:27.012Z,78.72
